createdAt,value
2023-01-17T00:01:27.535Z,44.30
2023-01-17T00:06:52.854Z,46.40
2023-01-17T00:12:03.787Z,46.30
2023-01-17T00:17:11.511Z,48.20
2023-01-17T00:22:42.323Z,52.30
2023-01-17T00:27:51.033Z,50.10
2023-01-17T00:32:58.680Z,49.00
2023-01-17T00:38:08.439Z,52.70
2023-01-17T00:43:35.164Z,51.80
2023-01-17T00:49:01.249Z,57.10
2023-01-17T00:54:29.743Z,58.10
2023-01-17T00:59:59.974Z,64.00
2023-01-17T01:05:25.801Z,63.70
2023-01-17T01:10:51.478Z,59.70
2023-01-17T01:16:18.767Z,60.40
2023-01-17T01:21:43.470Z,66.70
2023-01-17T01:27:08.361Z,73.90
2023-01-17T01:32:32.835Z,71.40
2023-01-17T01:37:39.910Z,67.90
2023-01-17T01:42:53.612Z,68.60
2023-01-17T01:48:03.523Z,65.50
2023-01-17T01:53:11.570Z,64.80
2023-01-17T01:58:28.479Z,57.10
2023-01-17T02:03:37.457Z,54.50
2023-01-17T02:08:44.976Z,52.30
2023-01-17T02:13:51.922Z,46.20
2023-01-17T02:19:13.786Z,36.40
2023-01-17T02:24:48.505Z,36.00
2023-01-17T02:30:33.016Z,25.60
2023-01-17T02:35:50.194Z,16.60
2023-01-17T02:41:02.615Z,14.80
2023-01-17T02:51:44.375Z,9.10
2023-01-17T02:57:04.702Z,8.30
2023-01-17T03:02:31.957Z,9.10
2023-01-17T03:07:41.829Z,8.50
2023-01-17T03:12:48.919Z,7.70
2023-01-17T03:17:58.159Z,8.80
2023-01-17T03:23:05.892Z,7.60
2023-01-17T03:28:12.967Z,9.80
2023-01-17T03:33:20.858Z,9.90
2023-01-17T03:38:29.527Z,6.60
2023-01-17T03:43:37.909Z,7.00
2023-01-17T03:48:47.846Z,7.60
2023-01-17T03:53:55.681Z,7.00
2023-01-17T03:59:03.269Z,7.60
2023-01-17T04:04:10.442Z,8.40
2023-01-17T04:09:17.608Z,9.60
2023-01-17T04:14:24.702Z,8.90
2023-01-17T04:19:33.081Z,8.50
2023-01-17T04:24:40.707Z,10.50
2023-01-17T04:29:47.773Z,10.80
2023-01-17T04:34:54.778Z,10.80
2023-01-17T04:40:01.864Z,10.10
2023-01-17T04:45:10.643Z,10.20
2023-01-17T04:50:18.299Z,8.10
2023-01-17T04:55:25.368Z,8.20
2023-01-17T05:00:32.455Z,7.80
2023-01-17T05:05:39.407Z,6.70
2023-01-17T05:10:48.292Z,8.00
2023-01-17T05:15:55.568Z,6.90
2023-01-17T05:21:05.492Z,6.20
2023-01-17T05:26:13.086Z,5.80
2023-01-17T05:31:20.493Z,6.50
2023-01-17T05:36:28.190Z,6.60
2023-01-17T05:41:35.220Z,5.80
2023-01-17T05:46:42.489Z,5.80
2023-01-17T05:51:49.593Z,5.20
2023-01-17T05:56:56.511Z,4.90
2023-01-17T06:02:03.725Z,4.80
2023-01-17T06:07:10.603Z,4.50
2023-01-17T06:12:17.740Z,4.00
2023-01-17T06:17:24.896Z,3.50
2023-01-17T06:22:32.280Z,4.10
2023-01-17T06:27:39.225Z,4.20
2023-01-17T06:32:46.207Z,4.60
2023-01-17T06:37:55.605Z,4.40
2023-01-17T06:43:04.838Z,5.00
2023-01-17T06:48:12.368Z,5.50
2023-01-17T06:53:19.750Z,5.20
2023-01-17T06:58:27.321Z,5.80
2023-01-17T07:03:34.264Z,5.30
2023-01-17T07:08:41.401Z,7.40
2023-01-17T07:13:48.436Z,6.30
2023-01-17T07:18:58.200Z,5.80
2023-01-17T07:24:05.631Z,5.60
2023-01-17T07:29:12.603Z,6.20
2023-01-17T07:34:19.981Z,5.80
2023-01-17T07:39:27.007Z,6.30
2023-01-17T07:44:34.080Z,5.70
2023-01-17T07:49:41.196Z,13.90
2023-01-17T07:54:48.170Z,11.00
2023-01-17T07:59:55.402Z,13.10
2023-01-17T08:05:02.546Z,8.30
2023-01-17T08:10:13.235Z,7.50
2023-01-17T08:15:20.711Z,7.10
2023-01-17T08:20:28.410Z,8.10
2023-01-17T08:25:35.792Z,17.90
2023-01-17T08:30:42.878Z,16.60
2023-01-17T08:35:56.560Z,8.70
2023-01-17T08:41:04.392Z,6.90
2023-01-17T08:46:11.507Z,7.70
2023-01-17T08:51:18.552Z,7.50
2023-01-17T08:56:27.129Z,7.10
2023-01-17T09:01:42.122Z,5.60
2023-01-17T09:06:49.328Z,5.50
2023-01-17T09:11:57.145Z,8.60
2023-01-17T09:17:05.803Z,6.70
2023-01-17T09:22:13.034Z,4.10
2023-01-17T09:27:20.883Z,3.70
2023-01-17T09:32:27.904Z,5.00
2023-01-17T09:37:34.812Z,5.20
2023-01-17T09:42:43.264Z,10.10
2023-01-17T09:47:52.569Z,13.70
2023-01-17T09:53:02.788Z,5.30
2023-01-17T09:58:14.222Z,4.60
2023-01-17T10:03:42.883Z,5.00
2023-01-17T10:09:20.055Z,3.80
2023-01-17T10:14:45.455Z,3.90
2023-01-17T10:20:09.846Z,2.10
2023-01-17T10:25:30.261Z,3.00
2023-01-17T10:30:46.285Z,3.40
2023-01-17T10:35:59.500Z,4.50
2023-01-17T10:41:15.825Z,4.70
2023-01-17T10:46:28.766Z,3.80
2023-01-17T10:52:01.340Z,4.70
2023-01-17T10:57:16.058Z,5.10
2023-01-17T11:02:29.993Z,2.60
2023-01-17T11:07:39.976Z,2.10
2023-01-17T11:12:48.620Z,3.10
2023-01-17T11:18:05.473Z,3.10
2023-01-17T11:23:17.179Z,3.30
2023-01-17T11:28:30.516Z,2.40
2023-01-17T11:33:47.983Z,2.70
2023-01-17T11:39:04.009Z,4.70
2023-01-17T11:44:27.117Z,3.50
2023-01-17T11:49:34.218Z,4.70
2023-01-17T11:54:45.750Z,3.30
2023-01-17T11:59:54.724Z,3.00
2023-01-17T12:05:18.691Z,4.00
2023-01-17T12:10:32.466Z,3.30
2023-01-17T12:15:55.068Z,3.50
2023-01-17T12:21:15.697Z,3.10
2023-01-17T12:26:36.064Z,3.20
2023-01-17T12:31:56.113Z,2.90
2023-01-17T12:37:09.668Z,4.40
2023-01-17T12:42:22.539Z,2.60
2023-01-17T12:47:30.335Z,3.60
2023-01-17T12:52:50.077Z,2.50
2023-01-17T12:58:01.362Z,2.60
2023-01-17T13:03:17.669Z,2.10
2023-01-17T13:08:30.266Z,3.40
2023-01-17T13:13:39.349Z,2.60
2023-01-17T13:18:49.112Z,2.80
2023-01-17T13:24:24.115Z,2.90
2023-01-17T13:29:42.480Z,2.80
2023-01-17T13:35:07.477Z,3.10
2023-01-17T13:40:37.208Z,3.10
2023-01-17T13:45:52.515Z,3.00
2023-01-17T13:51:00.804Z,2.70
2023-01-17T13:56:14.586Z,3.00
2023-01-17T14:01:53.147Z,2.60
2023-01-17T14:07:17.472Z,5.80
2023-01-17T14:12:32.285Z,4.10
2023-01-17T14:17:55.997Z,4.40
2023-01-17T14:23:06.325Z,4.80
2023-01-17T14:28:30.417Z,4.10
2023-01-17T14:33:40.933Z,3.70
2023-01-17T14:38:47.928Z,4.40
2023-01-17T14:43:55.597Z,3.50
2023-01-17T14:49:08.304Z,3.20
2023-01-17T14:54:23.246Z,3.30
2023-01-17T14:59:30.293Z,4.90
2023-01-17T15:04:39.759Z,5.10
2023-01-17T15:09:47.368Z,4.40
2023-01-17T15:14:58.562Z,4.70
2023-01-17T15:20:09.894Z,5.40
2023-01-17T15:25:19.235Z,11.70
2023-01-17T15:30:27.238Z,5.80
2023-01-17T15:35:34.341Z,4.70
2023-01-17T15:40:46.353Z,4.90
2023-01-17T15:51:14.483Z,35.00
2023-01-17T15:56:32.967Z,23.30
2023-01-17T16:01:41.704Z,27.60
2023-01-17T16:06:54.942Z,110.20
2023-01-17T16:12:06.123Z,112.30
2023-01-17T16:17:20.975Z,25.80
2023-01-17T16:22:36.562Z,43.70
2023-01-17T16:27:49.422Z,37.60
2023-01-17T16:33:15.031Z,62.90
2023-01-17T16:38:29.647Z,76.20
2023-01-17T16:43:48.401Z,121.60
2023-01-17T16:49:03.402Z,129.30
2023-01-17T16:54:14.455Z,117.80
2023-01-17T16:59:26.083Z,59.30
2023-01-17T17:04:35.567Z,32.00
2023-01-17T17:09:43.886Z,16.50
2023-01-17T17:14:51.813Z,13.30
2023-01-17T17:19:59.168Z,12.00
2023-01-17T17:25:08.635Z,13.40
2023-01-17T17:30:20.808Z,74.20
2023-01-17T17:35:42.265Z,28.00
2023-01-17T17:41:09.106Z,18.60
2023-01-17T17:46:21.090Z,17.70
2023-01-17T17:51:34.169Z,21.90
2023-01-17T17:56:47.675Z,16.80
2023-01-17T18:02:06.213Z,10.90
2023-01-17T18:07:19.681Z,12.40
2023-01-17T18:12:26.919Z,15.10
2023-01-17T18:17:34.321Z,14.60
2023-01-17T18:22:46.507Z,23.30
2023-01-17T18:28:00.310Z,18.10
2023-01-17T18:38:48.248Z,21.70
2023-01-17T18:43:57.520Z,30.70
2023-01-17T18:49:06.258Z,34.90
2023-01-17T18:54:34.903Z,42.60
2023-01-17T18:59:43.256Z,30.60
2023-01-17T19:04:50.208Z,34.10
2023-01-17T19:09:57.148Z,36.40
2023-01-17T19:15:08.411Z,40.40
2023-01-17T19:20:17.400Z,81.70
2023-01-17T19:25:30.803Z,72.10
2023-01-17T19:30:40.981Z,62.40
2023-01-17T19:35:48.289Z,38.40
2023-01-17T19:40:55.358Z,38.70
2023-01-17T19:46:04.895Z,44.90
2023-01-17T19:51:17.930Z,58.20
2023-01-17T19:56:27.794Z,44.20
2023-01-17T20:01:39.997Z,66.20
2023-01-17T20:06:49.154Z,54.30
2023-01-17T20:12:04.508Z,52.60
2023-01-17T20:17:18.637Z,50.80
2023-01-17T20:22:30.379Z,59.60
2023-01-17T20:27:46.887Z,51.00
2023-01-17T20:32:59.937Z,54.70
2023-01-17T20:38:12.149Z,51.20
2023-01-17T20:43:27.129Z,45.10
2023-01-17T20:48:56.338Z,41.00
2023-01-17T20:54:08.465Z,39.20
2023-01-17T20:59:26.693Z,38.50
2023-01-17T21:04:40.586Z,39.40
2023-01-17T21:09:51.914Z,41.90
2023-01-17T21:15:04.894Z,35.60
2023-01-17T21:20:16.613Z,36.10
2023-01-17T21:25:23.402Z,40.90
2023-01-17T21:30:30.351Z,44.60
2023-01-17T21:35:37.353Z,49.00
2023-01-17T21:40:45.259Z,42.70
2023-01-17T21:45:53.579Z,45.40
2023-01-17T21:51:06.132Z,42.50
2023-01-17T21:56:33.209Z,46.40
2023-01-17T22:01:40.393Z,48.40
2023-01-17T22:06:47.471Z,51.50
2023-01-17T22:11:54.522Z,53.70
2023-01-17T22:17:01.550Z,46.80
2023-01-17T22:22:08.577Z,57.80
2023-01-17T22:27:15.429Z,51.70
2023-01-17T22:32:22.521Z,44.90
2023-01-17T22:37:29.459Z,41.40
2023-01-17T22:42:36.857Z,39.10
2023-01-17T22:47:43.742Z,33.80
2023-01-17T22:52:50.711Z,32.60
2023-01-17T22:57:57.554Z,29.90
2023-01-17T23:03:06.378Z,32.60
2023-01-17T23:08:13.353Z,30.50
2023-01-17T23:13:20.301Z,35.80
2023-01-17T23:18:44.508Z,31.10
2023-01-17T23:23:51.597Z,33.00
2023-01-17T23:29:00.303Z,30.70
2023-01-17T23:34:07.489Z,37.80
2023-01-17T23:39:14.667Z,41.80
2023-01-17T23:44:21.609Z,40.50
2023-01-17T23:49:29.695Z,37.80
2023-01-17T23:54:38.694Z,38.20
2023-01-17T23:59:45.612Z,31.70
